Time;durP1;ratioP1;P1;durP2;ratioP2;P2;SDS_P1;SDS_P2;PMS_P1;PMS_P2;Temp;Humidity;BMP_temperature;BMP_pressure;BME280_temperature;BME280_humidity;BME280_pressure;Samples;Min_cycle;Max_cycle;Signal;HPM_P1;HPM_P2
2021/09/23 00:01:47;;;;;;;27.48;11.73;;;12.50;99.90;;;;;;5052354;28;20031;-73
2021/09/23 00:04:32;;;;;;;18.88;9.18;;;12.50;99.90;;;;;;5059932;28;20068;-72
2021/09/23 00:06:59;;;;;;;17.23;7.97;;;12.50;99.90;;;;;;5053600;28;20097;-73
2021/09/23 00:09:25;;;;;;;13.23;5.82;;;12.50;99.90;;;;;;5059963;28;20052;-73
2021/09/23 00:11:50;;;;;;;15.77;6.47;;;12.50;99.90;;;;;;5054757;28;20060;-72
2021/09/23 00:14:16;;;;;;;13.20;6.07;;;12.50;99.90;;;;;;5057844;28;20479;-71
2021/09/23 00:16:42;;;;;;;10.90;6.13;;;12.50;99.90;;;;;;5053806;28;20053;-71
2021/09/23 00:19:08;;;;;;;13.23;6.78;;;12.50;99.90;;;;;;5059304;28;20031;-72
2021/09/23 00:21:34;;;;;;;10.18;6.05;;;12.50;99.90;;;;;;5050650;28;20032;-71
2021/09/23 00:24:00;;;;;;;17.50;6.18;;;12.60;99.90;;;;;;5054824;28;20040;-71
2021/09/23 00:26:25;;;;;;;11.00;6.30;;;12.50;99.90;;;;;;5057430;28;20021;-71
2021/09/23 00:28:50;;;;;;;14.18;7.07;;;12.60;99.90;;;;;;5060570;28;20025;-71
2021/09/23 00:31:16;;;;;;;11.18;6.82;;;12.60;99.90;;;;;;5061194;28;20040;-71
2021/09/23 00:33:41;;;;;;;12.05;6.20;;;12.50;99.90;;;;;;5062330;28;20119;-71
2021/09/23 00:36:07;;;;;;;13.55;5.65;;;12.50;99.90;;;;;;5064525;28;20032;-71
2021/09/23 00:38:33;;;;;;;13.95;7.10;;;12.50;99.90;;;;;;5067737;28;20024;-72
2021/09/23 00:40:58;;;;;;;15.77;7.05;;;12.50;99.90;;;;;;5063004;28;20047;-71
2021/09/23 00:43:24;;;;;;;12.68;6.70;;;12.50;99.90;;;;;;5057232;28;20052;-71
2021/09/23 00:45:49;;;;;;;12.55;7.13;;;12.50;99.90;;;;;;5060688;28;20028;-71
2021/09/23 00:48:15;;;;;;;14.30;7.45;;;12.60;99.90;;;;;;5063069;28;20615;-72
2021/09/23 00:50:40;;;;;;;16.35;8.07;;;12.60;99.90;;;;;;5065266;28;20115;-72
2021/09/23 00:53:07;;;;;;;15.68;8.05;;;12.60;99.90;;;;;;5060220;28;20016;-71
2021/09/23 00:55:33;;;;;;;16.27;8.18;;;12.60;99.90;;;;;;5050186;28;20475;-72
2021/09/23 00:57:58;;;;;;;12.80;7.22;;;12.60;99.90;;;;;;5057319;28;20037;-72
2021/09/23 01:00:25;;;;;;;13.52;6.90;;;12.70;99.90;;;;;;5048937;28;20025;-71
2021/09/23 01:02:50;;;;;;;10.80;6.70;;;12.70;99.90;;;;;;5062583;28;20035;-72
2021/09/23 01:05:16;;;;;;;13.75;6.85;;;12.60;99.90;;;;;;5062997;28;20687;-72
2021/09/23 01:07:50;;;;;;;15.90;7.63;;;12.60;99.90;;;;;;5058739;28;20033;-71
2021/09/23 01:10:18;;;;;;;13.55;7.38;;;12.60;99.90;;;;;;5058022;28;20027;-72
2021/09/23 01:12:46;;;;;;;23.98;9.13;;;12.60;99.90;;;;;;5044744;28;20059;-71
2021/09/23 01:15:15;;;;;;;13.35;7.53;;;12.50;99.90;;;;;;5056643;28;20081;-71
2021/09/23 01:17:42;;;;;;;18.08;9.70;;;12.50;99.90;;;;;;5045567;28;20044;-71
2021/09/23 01:20:08;;;;;;;18.45;8.88;;;12.50;99.90;;;;;;5059644;28;20029;-71
2021/09/23 01:22:33;;;;;;;18.60;9.93;;;12.50;99.90;;;;;;5053675;28;20037;-71
2021/09/23 01:25:00;;;;;;;18.13;9.00;;;12.50;99.90;;;;;;5050801;28;20025;-72
2021/09/23 01:27:25;;;;;;;15.18;9.18;;;12.50;99.90;;;;;;5053435;28;20163;-72
2021/09/23 01:29:51;;;;;;;18.45;10.23;;;12.50;99.90;;;;;;5054567;28;20122;-72
2021/09/23 01:32:19;;;;;;;18.08;9.30;;;12.60;99.90;;;;;;5055863;28;20033;-71
2021/09/23 01:34:44;;;;;;;17.25;9.43;;;12.60;99.90;;;;;;5049442;28;20029;-72
2021/09/23 01:37:10;;;;;;;20.00;9.98;;;12.60;99.90;;;;;;5057079;28;20035;-72
2021/09/23 01:39:36;;;;;;;19.02;9.68;;;12.60;99.90;;;;;;5060650;28;20107;-71
2021/09/23 01:42:02;;;;;;;20.65;10.45;;;12.60;99.90;;;;;;5063808;28;20028;-71
2021/09/23 01:44:28;;;;;;;17.88;10.40;;;12.60;99.90;;;;;;5060661;28;20041;-72
2021/09/23 01:46:53;;;;;;;19.05;10.52;;;12.60;99.90;;;;;;5057692;28;20036;-71
2021/09/23 01:49:19;;;;;;;20.20;10.63;;;12.60;99.90;;;;;;5053729;28;20029;-71
2021/09/23 01:51:45;;;;;;;23.98;10.18;;;12.60;99.90;;;;;;5050572;28;20036;-71
2021/09/23 01:54:11;;;;;;;19.05;10.73;;;12.60;99.90;;;;;;5061825;28;20052;-72
2021/09/23 01:56:36;;;;;;;20.17;10.45;;;12.50;99.90;;;;;;5058039;28;20044;-72
2021/09/23 01:59:02;;;;;;;17.38;10.68;;;12.50;99.90;;;;;;5050572;28;20036;-72
2021/09/23 02:01:28;;;;;;;19.65;10.02;;;12.50;99.90;;;;;;5056258;28;20522;-72
2021/09/23 02:03:53;;;;;;;22.05;10.85;;;12.50;99.90;;;;;;5038736;28;20104;-72
2021/09/23 02:06:19;;;;;;;18.15;10.98;;;12.50;99.90;;;;;;5060951;28;20420;-71
2021/09/23 02:08:44;;;;;;;23.77;11.80;;;12.50;99.90;;;;;;5059095;28;20024;-72
2021/09/23 02:11:11;;;;;;;19.58;11.38;;;12.50;99.90;;;;;;5054032;28;20392;-71
2021/09/23 02:13:37;;;;;;;27.25;12.18;;;12.50;99.90;;;;;;5062624;28;21370;-71
2021/09/23 02:16:03;;;;;;;26.45;11.57;;;12.50;99.90;;;;;;5060982;28;20051;-71
2021/09/23 02:18:28;;;;;;;17.73;10.35;;;12.50;99.90;;;;;;5058678;28;20564;-71
2021/09/23 02:20:53;;;;;;;17.65;10.00;;;12.50;99.90;;;;;;5055930;28;20031;-72
2021/09/23 02:23:19;;;;;;;20.45;11.18;;;12.50;99.90;;;;;;5052283;28;20862;-71
2021/09/23 02:25:44;;;;;;;26.25;12.32;;;12.50;99.90;;;;;;5057820;28;20162;-72
2021/09/23 02:28:10;;;;;;;20.33;10.73;;;12.50;99.90;;;;;;5060100;28;20110;-72
2021/09/23 02:30:36;;;;;;;19.52;10.63;;;12.50;99.90;;;;;;5060480;28;20426;-71
2021/09/23 02:33:02;;;;;;;17.60;10.68;;;12.40;99.90;;;;;;5051739;28;20049;-72
2021/09/23 02:35:28;;;;;;;20.00;10.80;;;12.40;99.90;;;;;;5056909;28;20083;-72
2021/09/23 02:37:53;;;;;;;20.30;11.35;;;12.40;99.90;;;;;;5054169;28;20597;-71
2021/09/23 02:40:19;;;;;;;17.42;11.00;;;12.40;99.90;;;;;;5059814;28;20025;-71
2021/09/23 02:42:44;;;;;;;18.45;9.93;;;12.30;99.90;;;;;;5056349;28;20031;-71
2021/09/23 02:45:12;;;;;;;22.70;11.02;;;12.30;99.90;;;;;;5054513;28;20025;-72
2021/09/23 02:47:38;;;;;;;22.05;10.95;;;12.30;99.90;;;;;;5060626;28;20033;-72
2021/09/23 02:50:05;;;;;;;21.05;11.38;;;12.30;99.90;;;;;;5060277;28;20433;-72
2021/09/23 02:52:30;;;;;;;18.17;10.25;;;12.20;99.90;;;;;;5049798;28;20020;-71
2021/09/23 02:54:56;;;;;;;19.50;10.40;;;12.20;99.90;;;;;;5060657;28;20035;-71
2021/09/23 02:57:21;;;;;;;16.13;10.07;;;12.10;99.90;;;;;;5043700;28;20041;-71
2021/09/23 02:59:46;;;;;;;25.75;11.95;;;12.10;99.90;;;;;;5053660;28;20103;-71
2021/09/23 03:02:12;;;;;;;26.52;12.52;;;12.10;99.90;;;;;;5048288;28;20014;-72
2021/09/23 03:04:38;;;;;;;24.88;12.98;;;12.10;99.90;;;;;;5059743;28;20059;-72
2021/09/23 03:07:03;;;;;;;23.80;13.57;;;12.20;99.90;;;;;;5056610;28;20033;-72
2021/09/23 03:09:29;;;;;;;24.70;13.07;;;12.10;99.90;;;;;;5057262;28;20582;-72
2021/09/23 03:11:55;;;;;;;30.92;14.43;;;12.10;99.90;;;;;;5047859;28;20107;-71
2021/09/23 03:14:20;;;;;;;23.30;13.63;;;12.20;99.90;;;;;;5058558;28;20543;-72
2021/09/23 03:16:46;;;;;;;26.63;14.63;;;12.20;99.90;;;;;;5059405;28;20085;-72
2021/09/23 03:19:11;;;;;;;27.60;14.48;;;12.20;99.90;;;;;;5057776;28;20028;-73
2021/09/23 03:21:37;;;;;;;27.20;14.18;;;12.20;99.90;;;;;;5052778;28;20017;-72
2021/09/23 03:24:04;;;;;;;30.73;14.80;;;12.30;99.90;;;;;;5056832;28;20028;-72
2021/09/23 03:26:30;;;;;;;30.98;15.20;;;12.30;99.90;;;;;;5056265;28;20029;-72
2021/09/23 03:28:56;;;;;;;29.75;14.23;;;12.30;99.90;;;;;;5051483;28;20024;-72
2021/09/23 03:31:21;;;;;;;29.83;14.68;;;12.30;99.90;;;;;;5053738;28;20039;-73
2021/09/23 03:33:47;;;;;;;30.27;15.32;;;12.30;99.90;;;;;;5050515;28;20169;-72
2021/09/23 03:36:12;;;;;;;25.95;14.57;;;12.30;99.90;;;;;;5050450;28;20590;-72
2021/09/23 03:38:38;;;;;;;30.30;14.07;;;12.30;99.90;;;;;;5053628;28;20032;-72
2021/09/23 03:41:03;;;;;;;31.83;15.57;;;12.30;99.90;;;;;;5054241;28;20070;-72
2021/09/23 03:43:29;;;;;;;32.30;17.02;;;12.30;99.90;;;;;;5054973;28;20025;-72
2021/09/23 03:45:56;;;;;;;30.17;15.68;;;12.30;99.90;;;;;;5053978;28;20049;-72
2021/09/23 03:48:22;;;;;;;31.42;17.02;;;12.30;99.90;;;;;;5052422;28;20047;-71
2021/09/23 03:50:48;;;;;;;37.85;16.23;;;12.30;99.90;;;;;;5054979;28;20021;-72
2021/09/23 03:53:14;;;;;;;31.27;15.80;;;12.30;99.90;;;;;;5063223;28;20028;-71
2021/09/23 03:55:40;;;;;;;34.47;16.75;;;12.30;99.90;;;;;;5064123;28;20029;-72
2021/09/23 03:58:05;;;;;;;32.63;15.85;;;12.30;99.90;;;;;;5056323;28;20045;-72
2021/09/23 04:00:31;;;;;;;32.65;16.30;;;12.30;99.90;;;;;;5062361;28;20024;-73
2021/09/23 04:02:57;;;;;;;31.25;16.13;;;12.30;99.90;;;;;;5055076;28;20514;-72
2021/09/23 04:05:23;;;;;;;37.45;17.27;;;12.30;99.90;;;;;;5060023;28;20021;-72
2021/09/23 04:07:49;;;;;;;38.00;17.30;;;12.40;99.90;;;;;;5049682;28;20029;-71
2021/09/23 04:10:14;;;;;;;33.03;17.27;;;12.30;99.90;;;;;;5062860;28;20017;-71
2021/09/23 04:12:40;;;;;;;30.95;16.90;;;12.40;99.90;;;;;;5056953;28;20029;-72
2021/09/23 04:15:07;;;;;;;32.58;17.00;;;12.50;99.90;;;;;;5057681;28;20042;-72
2021/09/23 04:17:33;;;;;;;34.58;17.55;;;12.50;99.90;;;;;;5052852;28;20033;-72
2021/09/23 04:19:58;;;;;;;34.17;18.35;;;12.50;99.90;;;;;;5053007;28;20025;-72
2021/09/23 04:22:24;;;;;;;38.25;18.17;;;12.60;99.90;;;;;;5051260;28;20029;-72
2021/09/23 04:24:49;;;;;;;30.05;17.13;;;12.60;99.90;;;;;;5054979;28;20596;-72
2021/09/23 04:27:15;;;;;;;33.80;17.00;;;12.70;99.90;;;;;;5061467;28;20035;-72
2021/09/23 04:29:43;;;;;;;37.00;18.58;;;12.70;99.90;;;;;;5061655;28;20115;-71
2021/09/23 04:32:12;;;;;;;30.75;16.48;;;12.70;99.90;;;;;;5059342;28;20776;-71
2021/09/23 04:34:38;;;;;;;31.88;17.23;;;12.70;99.90;;;;;;5064874;28;20028;-71
2021/09/23 04:37:03;;;;;;;36.25;18.38;;;12.70;99.90;;;;;;5054453;28;20021;-71
2021/09/23 04:39:29;;;;;;;31.85;17.10;;;12.70;99.90;;;;;;5063128;28;20016;-72
2021/09/23 04:41:55;;;;;;;37.15;18.60;;;12.70;99.90;;;;;;5057296;28;20594;-71
2021/09/23 04:44:20;;;;;;;38.83;18.27;;;12.60;99.90;;;;;;5063934;28;20035;-71
2021/09/23 04:46:46;;;;;;;37.50;18.15;;;12.60;99.90;;;;;;5059541;28;20073;-72
2021/09/23 04:49:11;;;;;;;34.70;17.98;;;12.60;99.90;;;;;;5059790;28;20056;-71
2021/09/23 04:51:37;;;;;;;35.75;17.73;;;12.60;99.90;;;;;;5054091;28;20036;-71
2021/09/23 04:54:03;;;;;;;31.45;17.13;;;12.60;99.90;;;;;;5055821;28;20055;-72
2021/09/23 04:56:29;;;;;;;35.97;17.77;;;12.60;99.90;;;;;;5064689;28;20118;-72
2021/09/23 04:58:55;;;;;;;38.35;17.70;;;12.60;99.90;;;;;;5059648;28;20165;-71
2021/09/23 05:01:21;;;;;;;34.83;17.88;;;12.60;99.90;;;;;;5063249;28;20115;-71
2021/09/23 05:03:46;;;;;;;36.28;18.17;;;12.50;99.90;;;;;;5055967;28;20177;-72
2021/09/23 05:06:11;;;;;;;33.08;16.70;;;12.50;99.90;;;;;;5063461;28;20250;-71
2021/09/23 05:08:38;;;;;;;36.22;18.67;;;12.50;99.90;;;;;;5065012;28;20021;-72
2021/09/23 05:11:04;;;;;;;34.85;17.35;;;12.60;99.90;;;;;;5057576;28;20074;-72
2021/09/23 05:13:29;;;;;;;36.97;17.98;;;12.50;99.90;;;;;;5055285;28;20129;-72
2021/09/23 05:15:54;;;;;;;33.78;18.23;;;12.60;99.90;;;;;;5058664;28;20029;-72
2021/09/23 05:18:20;;;;;;;34.63;18.35;;;12.60;99.90;;;;;;5059869;28;20487;-72
2021/09/23 05:20:45;;;;;;;28.42;16.17;;;12.60;99.90;;;;;;5061019;28;20083;-72
2021/09/23 05:23:11;;;;;;;34.03;17.35;;;12.60;99.90;;;;;;5054790;28;20023;-71
2021/09/23 05:25:36;;;;;;;39.97;17.02;;;12.60;99.90;;;;;;5056413;28;20025;-72
2021/09/23 05:28:05;;;;;;;32.42;17.33;;;12.60;99.90;;;;;;5064536;28;20025;-71
2021/09/23 05:30:31;;;;;;;30.60;15.75;;;12.60;99.90;;;;;;5059627;28;20043;-72
2021/09/23 05:32:57;;;;;;;38.53;16.45;;;12.60;99.90;;;;;;5057698;28;20036;-71
2021/09/23 05:35:22;;;;;;;29.63;15.85;;;12.60;99.90;;;;;;5060151;28;20789;-70
2021/09/23 05:37:48;;;;;;;29.77;17.55;;;12.60;99.90;;;;;;5059974;28;20043;-70
2021/09/23 05:40:14;;;;;;;33.15;17.15;;;12.70;99.90;;;;;;5057102;28;20103;-70
2021/09/23 05:42:40;;;;;;;33.70;17.27;;;12.70;99.90;;;;;;5057019;28;20095;-71
2021/09/23 05:45:09;;;;;;;35.60;17.05;;;12.70;99.90;;;;;;5055397;28;20032;-72
2021/09/23 05:47:35;;;;;;;35.92;16.30;;;12.70;99.90;;;;;;5054669;28;20025;-70
2021/09/23 05:50:01;;;;;;;36.25;17.00;;;12.80;99.90;;;;;;5055860;28;20455;-71
2021/09/23 05:52:26;;;;;;;36.00;16.27;;;12.80;99.90;;;;;;5050468;28;20031;-70
2021/09/23 05:54:52;;;;;;;32.60;15.63;;;12.80;99.90;;;;;;5055920;28;20048;-71
2021/09/23 05:57:22;;;;;;;35.90;16.27;;;12.80;99.90;;;;;;5057550;28;20036;-71
2021/09/23 05:59:48;;;;;;;32.45;15.90;;;12.90;99.90;;;;;;5048686;28;20100;-69
2021/09/23 06:02:13;;;;;;;30.75;16.00;;;12.90;99.90;;;;;;5056788;28;20119;-71
2021/09/23 06:04:39;;;;;;;41.97;16.65;;;12.90;99.90;;;;;;5057661;28;20047;-71
2021/09/23 06:07:04;;;;;;;32.55;16.63;;;13.00;99.90;;;;;;5051743;28;20537;-71
2021/09/23 06:09:30;;;;;;;33.33;15.35;;;13.00;99.90;;;;;;5050060;28;20072;-71
2021/09/23 06:11:55;;;;;;;37.00;17.13;;;13.00;99.90;;;;;;5053241;28;20036;-72
2021/09/23 06:14:21;;;;;;;31.25;16.45;;;13.10;99.90;;;;;;5053753;28;20032;-71
2021/09/23 06:16:47;;;;;;;36.85;17.38;;;13.10;99.90;;;;;;5053984;28;20036;-71
2021/09/23 06:19:12;;;;;;;38.58;16.77;;;13.10;99.90;;;;;;5048745;28;20020;-71
2021/09/23 06:21:39;;;;;;;30.73;16.65;;;13.20;99.90;;;;;;5050241;28;20020;-71
2021/09/23 06:24:05;;;;;;;33.03;16.35;;;13.20;99.90;;;;;;5054106;28;20396;-71
2021/09/23 06:26:31;;;;;;;32.58;17.48;;;13.20;99.90;;;;;;5055670;28;20161;-71
2021/09/23 06:28:56;;;;;;;36.85;17.70;;;13.20;99.90;;;;;;5063634;28;20074;-72
2021/09/23 06:31:22;;;;;;;32.50;16.60;;;13.20;99.90;;;;;;5059196;28;20040;-72
2021/09/23 06:33:47;;;;;;;33.58;16.52;;;13.30;99.90;;;;;;5056403;28;20029;-72
2021/09/23 06:36:13;;;;;;;36.38;16.90;;;13.30;99.90;;;;;;5059434;28;20060;-72
2021/09/23 06:38:39;;;;;;;37.45;17.80;;;13.40;99.90;;;;;;5057160;28;20104;-72
2021/09/23 06:41:04;;;;;;;34.78;17.42;;;13.40;99.90;;;;;;5057396;28;20289;-71
2021/09/23 06:43:30;;;;;;;31.48;16.85;;;13.40;99.90;;;;;;5051746;28;20013;-73
2021/09/23 06:45:55;;;;;;;37.67;17.35;;;13.50;99.90;;;;;;5061339;28;20020;-72
2021/09/23 06:48:21;;;;;;;41.40;18.88;;;13.50;99.90;;;;;;5052025;28;20025;-71
2021/09/23 06:50:46;;;;;;;35.05;18.73;;;13.60;99.90;;;;;;5060641;28;20032;-71
2021/09/23 06:53:13;;;;;;;40.90;17.90;;;13.50;99.90;;;;;;5059069;28;20029;-72
2021/09/23 06:55:38;;;;;;;37.22;18.52;;;13.60;99.90;;;;;;5053356;28;20029;-72
2021/09/23 06:58:04;;;;;;;42.30;17.98;;;13.60;99.90;;;;;;5065807;28;20051;-72
2021/09/23 07:00:29;;;;;;;32.88;17.27;;;13.70;99.90;;;;;;5061283;28;20036;-71
2021/09/23 07:02:55;;;;;;;31.85;17.55;;;13.70;99.90;;;;;;5047930;28;20029;-71
2021/09/23 07:05:20;;;;;;;35.45;17.27;;;13.70;99.90;;;;;;5054286;28;20021;-72
2021/09/23 07:07:46;;;;;;;34.80;16.85;;;13.70;99.90;;;;;;5054424;28;20116;-72
2021/09/23 07:10:24;;;;;;;39.60;16.92;;;13.70;99.90;;;;;;5061520;28;20029;-72
2021/09/23 07:12:49;;;;;;;32.08;16.98;;;13.70;99.90;;;;;;5060843;28;20026;-70
2021/09/23 07:15:15;;;;;;;35.33;16.85;;;13.70;99.90;;;;;;5059904;28;20193;-72
2021/09/23 07:17:40;;;;;;;33.53;17.75;;;13.70;99.90;;;;;;5052344;28;20037;-70
2021/09/23 07:20:07;;;;;;;38.80;17.85;;;13.80;99.90;;;;;;5060403;28;20455;-69
2021/09/23 07:22:32;;;;;;;38.88;16.05;;;13.80;99.90;;;;;;5057375;28;20031;-70
2021/09/23 07:24:58;;;;;;;31.98;15.90;;;13.80;99.90;;;;;;5044205;28;20021;-72
2021/09/23 07:27:25;;;;;;;33.95;16.50;;;13.90;99.90;;;;;;5054676;28;20041;-72
2021/09/23 07:29:53;;;;;;;32.63;16.30;;;14.00;99.90;;;;;;5049005;28;20028;-71
2021/09/23 07:32:19;;;;;;;33.38;16.65;;;14.00;99.90;;;;;;5055748;28;20051;-71
2021/09/23 07:34:44;;;;;;;34.50;16.30;;;14.10;99.90;;;;;;5039655;28;20162;-71
2021/09/23 07:37:10;;;;;;;36.75;17.48;;;14.10;99.90;;;;;;5049167;28;20032;-72
2021/09/23 07:39:36;;;;;;;37.63;17.33;;;14.10;99.90;;;;;;5071364;28;20394;-71
2021/09/23 07:42:02;;;;;;;35.85;17.38;;;14.10;99.90;;;;;;5062161;28;20037;-71
2021/09/23 07:44:28;;;;;;;32.05;16.38;;;14.20;99.90;;;;;;5056748;28;20418;-72
2021/09/23 07:46:59;;;;;;;33.40;16.48;;;14.30;99.90;;;;;;5057168;28;20032;-72
2021/09/23 07:49:25;;;;;;;33.28;15.93;;;14.40;99.90;;;;;;5046503;28;20395;-72
2021/09/23 07:51:50;;;;;;;35.42;16.23;;;14.40;99.90;;;;;;5054971;28;20036;-73
2021/09/23 07:54:16;;;;;;;34.47;15.68;;;14.60;99.90;;;;;;5057414;28;20099;-73
2021/09/23 07:56:43;;;;;;;30.58;15.88;;;14.60;99.90;;;;;;5042704;28;20032;-72
2021/09/23 07:59:09;;;;;;;30.15;15.85;;;14.80;99.90;;;;;;5052500;28;20106;-73
2021/09/23 08:01:34;;;;;;;33.22;15.85;;;14.90;99.90;;;;;;5059265;28;20021;-72
2021/09/23 08:04:00;;;;;;;33.20;16.15;;;15.00;99.90;;;;;;5060267;28;20028;-72
2021/09/23 08:06:25;;;;;;;38.45;15.82;;;15.20;99.90;;;;;;5060768;28;20033;-72
2021/09/23 08:08:51;;;;;;;27.40;15.13;;;15.30;99.90;;;;;;5060246;28;20033;-72
2021/09/23 08:11:16;;;;;;;26.08;14.13;;;15.40;99.90;;;;;;5060622;28;20024;-71
2021/09/23 08:13:43;;;;;;;34.30;15.00;;;15.40;99.90;;;;;;5060087;28;20056;-72
2021/09/23 08:16:08;;;;;;;33.83;14.80;;;15.50;99.90;;;;;;5056067;28;20038;-72
2021/09/23 08:18:34;;;;;;;30.15;13.50;;;15.60;99.90;;;;;;5061829;28;20024;-72
2021/09/23 08:20:59;;;;;;;29.17;15.27;;;15.70;99.90;;;;;;5062092;28;20624;-75
2021/09/23 08:23:25;;;;;;;30.60;14.57;;;15.70;99.90;;;;;;5061665;28;20031;-74
2021/09/23 08:25:52;;;;;;;30.52;14.73;;;15.80;99.90;;;;;;5052011;28;20450;-73
2021/09/23 08:28:23;;;;;;;31.35;13.13;;;15.80;99.90;;;;;;5053015;28;20082;-73
2021/09/23 08:30:49;;;;;;;26.75;13.85;;;15.80;99.90;;;;;;5055691;28;20136;-73
2021/09/23 08:33:14;;;;;;;27.38;13.93;;;15.80;99.90;;;;;;5051074;28;20463;-73
2021/09/23 08:35:40;;;;;;;32.90;15.40;;;15.90;99.90;;;;;;5049510;28;20458;-73
2021/09/23 08:38:05;;;;;;;31.90;13.35;;;15.90;99.90;;;;;;5056038;28;20082;-73
2021/09/23 08:40:31;;;;;;;30.33;13.15;;;16.00;99.90;;;;;;5055384;28;20029;-73
2021/09/23 08:42:57;;;;;;;28.83;14.32;;;16.00;99.90;;;;;;5056330;28;20036;-74
2021/09/23 08:45:22;;;;;;;24.00;12.77;;;16.10;99.90;;;;;;5053135;28;20032;-73
2021/09/23 08:47:48;;;;;;;28.13;14.00;;;16.10;99.90;;;;;;5054030;28;20021;-73
2021/09/23 08:50:16;;;;;;;24.83;12.98;;;16.10;99.90;;;;;;5056257;28;20079;-73
2021/09/23 08:52:43;;;;;;;26.98;12.88;;;16.10;99.90;;;;;;5057665;28;20016;-74
2021/09/23 08:55:20;;;;;;;27.45;12.63;;;16.00;99.90;;;;;;5059826;28;20060;-73
2021/09/23 08:57:45;;;;;;;29.25;12.80;;;16.00;99.90;;;;;;5055421;28;20440;-73
2021/09/23 09:00:11;;;;;;;29.75;12.48;;;16.00;99.90;;;;;;5056105;28;20119;-74
2021/09/23 09:02:37;;;;;;;26.40;12.27;;;16.00;99.90;;;;;;5061301;28;20029;-73
2021/09/23 09:05:03;;;;;;;25.90;12.45;;;16.00;99.90;;;;;;5060395;28;20508;-73
2021/09/23 09:07:28;;;;;;;25.60;11.85;;;16.10;99.90;;;;;;5060882;28;20068;-73
2021/09/23 09:10:08;;;;;;;29.08;12.07;;;16.20;99.90;;;;;;5057175;28;20036;-73
2021/09/23 09:12:34;;;;;;;24.08;11.70;;;16.30;99.90;;;;;;5055614;28;20032;-73
2021/09/23 09:15:00;;;;;;;24.52;11.77;;;16.40;99.90;;;;;;5059280;28;20554;-73
2021/09/23 09:17:26;;;;;;;24.13;12.05;;;16.50;99.90;;;;;;5056715;28;20037;-74
2021/09/23 09:19:59;;;;;;;22.90;11.20;;;16.60;99.90;;;;;;5057967;28;20769;-73
2021/09/23 09:22:27;;;;;;;22.90;11.15;;;16.70;99.90;;;;;;5055517;28;20052;-73
2021/09/23 09:25:19;;;;;;;23.42;11.52;;;16.80;98.80;;;;;;5058362;28;20086;-73
2021/09/23 09:27:49;;;;;;;19.08;10.88;;;16.90;98.80;;;;;;5051363;28;20448;-73
2021/09/23 09:30:21;;;;;;;22.00;11.02;;;17.00;98.00;;;;;;5061282;28;20548;-74
2021/09/23 09:32:50;;;;;;;24.05;10.48;;;17.00;97.70;;;;;;5058946;28;20032;-73
2021/09/23 09:35:17;;;;;;;18.52;10.10;;;17.10;97.50;;;;;;5058475;28;20093;-72
2021/09/23 09:37:48;;;;;;;21.17;9.93;;;17.20;96.60;;;;;;5056945;28;20060;-75
2021/09/23 09:40:22;;;;;;;23.55;9.52;;;17.30;96.90;;;;;;5058374;28;20047;-72
2021/09/23 09:42:51;;;;;;;20.45;10.23;;;17.40;96.50;;;;;;5059485;28;20036;-72
2021/09/23 09:45:28;;;;;;;21.63;9.15;;;17.40;95.40;;;;;;5061975;28;20031;-71
2021/09/23 09:47:55;;;;;;;21.55;9.57;;;17.50;95.40;;;;;;5055017;28;20082;-72
2021/09/23 09:50:37;;;;;;;18.73;9.25;;;17.70;93.70;;;;;;5064557;28;20104;-71
2021/09/23 09:53:06;;;;;;;17.75;8.93;;;17.80;93.80;;;;;;5061625;28;20507;-69
2021/09/23 09:55:44;;;;;;;19.65;9.85;;;17.80;93.00;;;;;;5057719;28;20037;-70
2021/09/23 09:58:12;;;;;;;20.45;9.48;;;17.80;91.90;;;;;;5060349;28;20185;-71
2021/09/23 10:00:38;;;;;;;22.40;9.98;;;17.70;92.00;;;;;;5059452;28;20534;-69
2021/09/23 10:03:05;;;;;;;20.70;8.38;;;17.80;92.50;;;;;;5059484;28;20309;-71
2021/09/23 10:05:32;;;;;;;18.70;8.88;;;17.90;92.30;;;;;;5055585;28;20025;-72
2021/09/23 10:07:59;;;;;;;18.20;8.90;;;18.00;91.40;;;;;;5056390;28;20131;-71
2021/09/23 10:10:28;;;;;;;20.00;9.40;;;18.20;91.10;;;;;;5053537;28;20107;-70
2021/09/23 10:12:57;;;;;;;18.05;9.27;;;18.30;90.80;;;;;;5057861;28;20056;-70
2021/09/23 10:15:23;;;;;;;17.80;8.65;;;18.60;88.80;;;;;;5049275;28;20037;-71
2021/09/23 10:17:51;;;;;;;17.55;9.02;;;18.70;88.60;;;;;;5058895;28;20033;-70
2021/09/23 10:20:21;;;;;;;17.92;9.02;;;18.70;87.70;;;;;;5058188;28;20036;-70
2021/09/23 10:22:47;;;;;;;18.17;9.35;;;18.70;87.20;;;;;;5057223;28;20043;-70
2021/09/23 10:25:16;;;;;;;21.98;8.52;;;18.70;87.20;;;;;;5063010;28;20025;-71
2021/09/23 10:27:58;;;;;;;20.50;9.35;;;18.70;87.00;;;;;;5058607;28;20037;-69
2021/09/23 10:30:34;;;;;;;;;;;18.60;86.80;;;;;;5060200;28;20037;-70
2021/09/23 10:33:01;;;;;;;15.35;8.15;;;18.60;86.60;;;;;;5058913;28;19957;-69
2021/09/23 10:35:29;;;;;;;22.95;9.23;;;18.50;87.00;;;;;;5057919;28;20043;-70
2021/09/23 10:37:58;;;;;;;18.60;9.60;;;18.40;87.20;;;;;;5057989;28;20033;-73
2021/09/23 10:40:25;;;;;;;16.75;8.13;;;18.40;87.60;;;;;;5059136;28;20032;-81
2021/09/23 10:42:53;;;;;;;19.45;8.85;;;18.40;87.10;;;;;;5060836;28;20025;-70
2021/09/23 10:45:22;;;;;;;18.08;8.10;;;18.40;87.30;;;;;;5060209;28;20028;-68
2021/09/23 10:48:13;;;;;;;15.27;7.70;;;18.40;86.60;;;;;;5060664;28;20155;-74
2021/09/23 10:50:40;;;;;;;18.70;7.90;;;18.40;86.60;;;;;;5046164;28;20032;-71
2021/09/23 10:53:08;;;;;;;13.20;7.60;;;18.40;86.00;;;;;;5056439;28;20029;-71
2021/09/23 10:55:39;;;;;;;21.63;7.43;;;18.40;86.20;;;;;;5054184;28;20028;-71
2021/09/23 10:58:07;;;;;;;16.45;6.72;;;18.40;85.60;;;;;;5061202;28;20097;-72
2021/09/23 11:00:33;;;;;;;14.38;6.63;;;18.60;86.90;;;;;;5059908;28;20028;-72
2021/09/23 11:03:10;;;;;;;12.90;6.70;;;18.70;85.70;;;;;;5062117;28;20254;-72
2021/09/23 11:05:37;;;;;;;13.15;7.28;;;18.90;83.30;;;;;;5060128;28;20058;-73
2021/09/23 11:08:12;;;;;;;14.77;6.18;;;19.10;82.20;;;;;;5059700;28;20673;-72
2021/09/23 11:10:42;;;;;;;10.65;6.28;;;19.20;82.10;;;;;;5053241;28;20040;-73
2021/09/23 11:13:13;;;;;;;16.02;6.30;;;19.30;81.10;;;;;;5050965;28;20028;-73
2021/09/23 11:15:41;;;;;;;15.05;6.85;;;19.40;80.90;;;;;;5052103;28;20085;-73
2021/09/23 11:18:07;;;;;;;14.15;6.97;;;19.40;78.90;;;;;;5045993;28;20021;-73
2021/09/23 11:20:34;;;;;;;13.32;6.30;;;19.30;79.50;;;;;;5042440;28;20529;-73
2021/09/23 11:23:03;;;;;;;13.73;6.68;;;19.40;79.40;;;;;;5052644;28;20131;-72
2021/09/23 11:25:35;;;;;;;14.30;6.20;;;19.60;80.10;;;;;;5054968;28;20035;-72
2021/09/23 11:28:02;;;;;;;13.20;6.30;;;19.70;78.30;;;;;;5057002;28;20158;-73
2021/09/23 11:30:33;;;;;;;15.18;5.78;;;;;;;;;;5058553;28;20545;-73
2021/09/23 11:33:02;;;;;;;23.48;5.90;;;;;;;;;;5058355;28;20082;-72
2021/09/23 11:35:30;;;;;;;25.95;6.78;;;;;;;;;;5055917;28;20028;-73
2021/09/23 11:37:57;;;;;;;10.55;5.47;;;;;;;;;;5061153;28;20079;-73
2021/09/23 11:40:25;;;;;;;14.63;5.25;;;;;;;;;;5061598;28;20399;-72
2021/09/23 11:42:51;;;;;;;8.88;5.10;;;;;;;;;;5057204;28;20119;-73
2021/09/23 11:45:18;;;;;;;9.57;5.82;;;;;;;;;;5053502;28;20128;-73
2021/09/23 11:47:55;;;;;;;10.00;4.53;;;;;;;;;;5056285;28;20495;-73
2021/09/23 11:50:25;;;;;;;9.05;4.80;;;;;;;;;;5058628;28;20060;-73
2021/09/23 11:52:52;;;;;;;15.93;4.45;;;;;;;;;;5057461;28;20034;-73
2021/09/23 11:55:18;;;;;;;15.43;4.72;;;;;;;;;;5054326;28;20066;-73
2021/09/23 11:57:44;;;;;;;11.38;4.45;;;;;;;;;;5058172;28;20049;-73
2021/09/23 12:00:11;;;;;;;11.52;4.45;;;;;;;;;;5061992;28;20024;-73
2021/09/23 12:02:37;;;;;;;11.57;4.38;;;;;;;;;;5060042;28;20546;-72
2021/09/23 12:05:03;;;;;;;8.98;4.40;;;;;;;;;;5060212;28;20144;-73
2021/09/23 12:07:31;;;;;;;10.65;3.70;;;;;;;;;;5065617;28;20056;-73
2021/09/23 12:10:08;;;;;;;5.30;3.33;;;;;;;;;;5060089;28;20517;-73
2021/09/23 12:12:34;;;;;;;6.82;3.30;;;;;;;;;;5066724;28;20024;-73
2021/09/23 12:15:00;;;;;;;11.95;3.30;;;;;;;;;;5064266;28;20028;-72
2021/09/23 12:17:26;;;;;;;10.07;3.30;;;;;;;;;;5063162;28;20029;-73
2021/09/23 12:19:56;;;;;;;6.22;3.13;;;;;;;;;;5043234;28;20021;-73
2021/09/23 12:22:35;;;;;;;5.20;2.80;;;;;;;;;;5057686;28;20536;-73
2021/09/23 12:25:02;;;;;;;5.85;3.15;;;;;;;;;;5070105;28;20020;-72
2021/09/23 12:27:28;;;;;;;3.20;2.53;;;;;;;;;;5055856;28;20116;-73
2021/09/23 12:29:56;;;;;;;9.48;2.38;;;;;;;;;;5060569;28;20541;-73
2021/09/23 12:32:29;;;;;;;6.15;2.30;;;;;;;;;;5062474;28;20020;-73
2021/09/23 12:34:55;;;;;;;4.45;2.05;;;;;;;;;;5062416;28;20467;-73
2021/09/23 12:37:22;;;;;;;2.63;1.80;;;;;;;;;;5062338;28;20033;-73
2021/09/23 12:39:48;;;;;;;6.90;2.00;;;;;;;;;;5060190;28;20016;-73